Time;durP1;ratioP1;P1;durP2;ratioP2;P2;SDS_P1;SDS_P2;PMS_P1;PMS_P2;Temp;Humidity;BMP_temperature;BMP_pressure;BME280_temperature;BME280_humidity;BME280_pressure;Samples;Min_cycle;Max_cycle;Signal;HPM_P1;HPM_P2
2022/07/08 00:01:11;;;;;;;11.73;2.53;;;15.50;99.90;;;;;;5069274;28;20049;-70
2022/07/08 00:03:37;;;;;;;11.27;2.00;;;15.60;99.90;;;;;;5076362;28;20048;-70
2022/07/08 00:06:03;;;;;;;4.05;1.67;;;15.40;99.90;;;;;;5068061;28;20097;-69
2022/07/08 00:08:30;;;;;;;11.48;2.10;;;15.40;99.90;;;;;;5078837;28;20403;-70
2022/07/08 00:10:57;;;;;;;12.15;2.65;;;15.50;99.90;;;;;;5060947;28;20490;-70
2022/07/08 00:13:23;;;;;;;12.63;2.70;;;15.90;99.90;;;;;;5048732;28;20502;-70
2022/07/08 00:15:49;;;;;;;9.75;1.90;;;15.80;99.90;;;;;;5060195;28;20040;-71
2022/07/08 00:18:14;;;;;;;13.77;2.20;;;15.50;99.90;;;;;;5069211;28;20055;-70
2022/07/08 00:20:40;;;;;;;9.48;2.25;;;15.50;99.90;;;;;;5068931;28;20059;-70
2022/07/08 00:23:06;;;;;;;9.30;2.40;;;15.50;99.90;;;;;;5068471;28;20063;-70
2022/07/08 00:25:31;;;;;;;8.60;1.95;;;15.50;99.90;;;;;;5071241;28;20115;-69
2022/07/08 00:27:57;;;;;;;14.02;2.60;;;16.30;99.90;;;;;;5069549;28;20051;-70
2022/07/08 00:30:23;;;;;;;11.63;2.40;;;15.50;99.90;;;;;;5071897;28;20543;-69
2022/07/08 00:32:48;;;;;;;10.32;2.10;;;15.40;99.90;;;;;;5069406;28;20036;-69
2022/07/08 00:35:14;;;;;;;8.85;2.10;;;15.50;99.90;;;;;;5068871;28;20178;-71
2022/07/08 00:37:39;;;;;;;10.13;2.25;;;15.80;99.90;;;;;;5068350;28;20044;-69
2022/07/08 00:40:06;;;;;;;10.10;2.15;;;15.30;99.90;;;;;;5069393;28;20554;-70
2022/07/08 00:42:32;;;;;;;9.50;2.40;;;15.40;99.90;;;;;;5050059;28;20072;-70
2022/07/08 00:44:57;;;;;;;12.80;2.22;;;15.40;99.90;;;;;;5053139;28;20068;-70
2022/07/08 00:47:23;;;;;;;11.80;2.35;;;15.40;99.90;;;;;;5049474;28;20056;-70
2022/07/08 00:49:50;;;;;;;16.13;2.85;;;15.80;99.90;;;;;;5049022;28;20064;-70
2022/07/08 00:52:16;;;;;;;9.57;2.75;;;15.50;99.90;;;;;;5050044;28;20390;-69
2022/07/08 00:54:42;;;;;;;10.27;1.90;;;15.40;99.90;;;;;;5066749;28;20048;-70
2022/07/08 00:57:08;;;;;;;10.10;2.05;;;15.50;99.90;;;;;;5053589;28;20029;-69
2022/07/08 00:59:33;;;;;;;13.38;2.30;;;15.50;99.90;;;;;;5077841;28;20416;-70
2022/07/08 01:01:59;;;;;;;9.80;2.10;;;16.00;99.90;;;;;;5068860;28;20098;-69
2022/07/08 01:04:25;;;;;;;11.52;2.35;;;15.30;99.90;;;;;;5068668;28;20051;-70
2022/07/08 01:06:51;;;;;;;8.18;1.88;;;15.30;99.90;;;;;;5087294;28;20392;-70
2022/07/08 01:09:16;;;;;;;11.90;2.25;;;15.60;99.90;;;;;;5088206;28;20051;-69
2022/07/08 01:11:47;;;;;;;10.38;2.40;;;15.30;99.90;;;;;;5088387;28;20135;-69
2022/07/08 01:14:16;;;;;;;11.63;2.00;;;15.30;99.90;;;;;;5086926;28;20044;-69
2022/07/08 01:16:42;;;;;;;8.68;2.55;;;15.30;99.90;;;;;;5087382;28;20513;-69
2022/07/08 01:19:08;;;;;;;10.73;1.80;;;15.50;99.90;;;;;;5089091;28;20048;-69
2022/07/08 01:21:34;;;;;;;7.60;2.00;;;15.30;99.90;;;;;;5050639;28;20040;-69
2022/07/08 01:23:59;;;;;;;10.20;2.20;;;15.30;99.90;;;;;;5058863;28;20040;-70
2022/07/08 01:26:25;;;;;;;9.75;2.08;;;16.00;99.90;;;;;;5088128;28;20062;-71
2022/07/08 01:28:51;;;;;;;13.45;2.63;;;15.30;99.90;;;;;;5088724;28;20044;-70
2022/07/08 01:31:17;;;;;;;11.55;2.20;;;15.70;99.90;;;;;;5069657;28;20117;-70
2022/07/08 01:33:42;;;;;;;11.30;2.30;;;15.60;99.90;;;;;;5068291;28;20059;-70
2022/07/08 01:36:08;;;;;;;13.82;2.13;;;15.70;99.90;;;;;;5068834;28;20036;-70
2022/07/08 01:38:34;;;;;;;9.90;2.10;;;15.30;99.90;;;;;;5067508;28;20059;-70
2022/07/08 01:41:00;;;;;;;6.78;1.90;;;15.40;99.90;;;;;;5068515;28;20036;-70
2022/07/08 01:43:26;;;;;;;14.95;2.58;;;15.20;99.90;;;;;;5067633;28;20041;-71
2022/07/08 01:45:51;;;;;;;6.57;1.90;;;15.20;99.90;;;;;;5068626;28;20126;-70
2022/07/08 01:48:17;;;;;;;13.35;2.47;;;15.20;99.90;;;;;;5049880;28;20044;-69
2022/07/08 01:50:43;;;;;;;12.38;2.30;;;15.10;99.90;;;;;;5068867;28;20473;-69
2022/07/08 01:53:08;;;;;;;14.02;2.20;;;15.30;99.90;;;;;;5068648;28;20131;-70
2022/07/08 01:55:34;;;;;;;10.50;2.13;;;14.90;99.90;;;;;;5088336;28;20389;-69
2022/07/08 01:58:00;;;;;;;12.55;2.33;;;14.90;99.90;;;;;;5087205;28;20048;-69
2022/07/08 02:00:25;;;;;;;9.27;2.10;;;14.90;99.90;;;;;;5080891;28;20385;-69
2022/07/08 02:02:51;;;;;;;10.82;2.10;;;14.80;99.90;;;;;;5069260;28;20044;-69
2022/07/08 02:05:17;;;;;;;19.45;2.35;;;14.80;99.90;;;;;;5066518;28;20059;-69
2022/07/08 02:07:43;;;;;;;6.93;2.17;;;14.90;99.90;;;;;;5068821;28;20048;-69
2022/07/08 02:10:10;;;;;;;11.50;2.33;;;14.80;99.90;;;;;;5067524;28;20048;-70
2022/07/08 02:12:35;;;;;;;10.40;2.35;;;15.00;99.90;;;;;;5065941;28;20045;-70
2022/07/08 02:15:06;;;;;;;8.60;2.15;;;14.60;99.90;;;;;;5068098;28;20151;-70
2022/07/08 02:17:34;;;;;;;10.95;2.25;;;14.60;99.90;;;;;;5061968;28;20087;-69
2022/07/08 02:20:02;;;;;;;15.98;2.55;;;14.60;99.90;;;;;;5086427;28;20048;-69
2022/07/08 02:22:28;;;;;;;10.73;2.25;;;14.50;99.90;;;;;;5086329;28;20028;-69
2022/07/08 02:24:54;;;;;;;8.43;2.13;;;14.50;99.90;;;;;;5087987;28;20047;-70
2022/07/08 02:27:19;;;;;;;8.85;2.25;;;14.50;99.90;;;;;;5086900;28;20139;-70
2022/07/08 02:29:45;;;;;;;9.50;2.28;;;14.40;99.90;;;;;;5087905;28;20123;-70
2022/07/08 02:32:11;;;;;;;14.30;2.20;;;14.50;99.90;;;;;;5077512;28;20400;-70
2022/07/08 02:34:37;;;;;;;8.70;2.20;;;14.40;99.90;;;;;;5066613;28;20063;-70
2022/07/08 02:37:03;;;;;;;7.35;2.03;;;14.60;99.90;;;;;;5048891;28;20481;-70
2022/07/08 02:39:28;;;;;;;9.98;2.53;;;14.40;99.90;;;;;;5067145;28;20048;-70
2022/07/08 02:41:54;;;;;;;10.60;2.60;;;14.30;99.90;;;;;;5066138;28;20044;-70
2022/07/08 02:44:20;;;;;;;9.90;2.10;;;14.30;99.90;;;;;;5067779;28;20454;-70
2022/07/08 02:46:46;;;;;;;11.07;2.35;;;14.30;99.90;;;;;;5081289;28;20047;-70
2022/07/08 02:49:12;;;;;;;11.13;2.55;;;14.30;99.90;;;;;;5067498;28;20040;-70
2022/07/08 02:51:38;;;;;;;8.02;2.45;;;14.30;99.90;;;;;;5066351;28;20045;-70
2022/07/08 02:54:05;;;;;;;13.05;2.40;;;14.20;99.90;;;;;;5031445;28;20048;-70
2022/07/08 02:56:34;;;;;;;9.25;2.38;;;14.20;99.90;;;;;;5067177;28;20440;-70
2022/07/08 02:59:01;;;;;;;10.65;2.17;;;14.20;99.90;;;;;;5077946;28;20050;-70
2022/07/08 03:01:26;;;;;;;15.48;2.35;;;14.80;99.90;;;;;;5083134;28;20076;-70
2022/07/08 03:03:52;;;;;;;12.40;2.70;;;14.60;99.90;;;;;;5087529;28;20137;-73
2022/07/08 03:06:18;;;;;;;9.95;2.30;;;14.10;99.90;;;;;;5086447;28;20047;-70
2022/07/08 03:08:44;;;;;;;11.90;2.47;;;14.10;99.90;;;;;;5086914;28;20051;-70
2022/07/08 03:11:09;;;;;;;7.90;2.53;;;14.00;99.90;;;;;;5085864;28;20229;-69
2022/07/08 03:13:38;;;;;;;13.13;2.72;;;14.00;99.90;;;;;;5071963;28;20131;-70
2022/07/08 03:16:05;;;;;;;8.02;2.58;;;14.00;99.90;;;;;;5067032;28;20127;-70
2022/07/08 03:18:34;;;;;;;12.57;2.72;;;14.00;99.90;;;;;;5071144;28;20146;-70
2022/07/08 03:21:00;;;;;;;12.68;2.58;;;14.50;99.90;;;;;;5052504;28;20450;-71
2022/07/08 03:23:26;;;;;;;14.20;2.58;;;14.40;99.90;;;;;;5051420;28;20080;-70
2022/07/08 03:25:52;;;;;;;8.77;2.40;;;14.00;99.90;;;;;;5076029;28;20075;-70
2022/07/08 03:28:17;;;;;;;8.77;2.75;;;13.90;99.90;;;;;;5060186;28;20546;-70
2022/07/08 03:30:43;;;;;;;12.65;2.40;;;13.90;99.90;;;;;;5069949;28;20056;-70
2022/07/08 03:33:08;;;;;;;8.73;2.67;;;13.90;99.90;;;;;;5052057;28;20045;-70
2022/07/08 03:35:34;;;;;;;8.38;2.50;;;13.90;99.90;;;;;;5035802;28;20381;-70
2022/07/08 03:37:59;;;;;;;12.07;2.83;;;14.40;99.90;;;;;;5068760;28;20056;-70
2022/07/08 03:43:10;;;;;;;8.93;2.42;;;13.90;99.90;;;;;;5088873;28;20438;-69
2022/07/08 03:45:36;;;;;;;13.45;2.80;;;13.80;99.90;;;;;;5072484;28;20048;-69
2022/07/08 03:48:03;;;;;;;14.32;2.75;;;13.80;99.90;;;;;;5089841;28;20075;-69
2022/07/08 03:50:29;;;;;;;8.68;2.53;;;13.80;99.90;;;;;;5074627;28;20045;-70
2022/07/08 03:52:55;;;;;;;9.50;2.65;;;13.80;99.90;;;;;;5052401;28;20047;-70
2022/07/08 03:55:23;;;;;;;10.75;2.70;;;13.90;99.90;;;;;;5051435;28;20324;-70
2022/07/08 03:57:48;;;;;;;16.60;3.15;;;13.80;99.90;;;;;;5049236;28;20041;-70
2022/07/08 04:00:15;;;;;;;13.50;3.10;;;13.80;99.90;;;;;;5049556;28;20435;-70
2022/07/08 04:02:41;;;;;;;13.80;3.47;;;13.90;99.90;;;;;;5050257;28;20049;-70
2022/07/08 04:05:07;;;;;;;8.13;2.70;;;13.90;99.90;;;;;;5048938;28;20071;-69
2022/07/08 04:07:33;;;;;;;14.05;2.80;;;13.90;99.90;;;;;;5075104;28;20067;-70
2022/07/08 04:09:59;;;;;;;10.23;2.58;;;14.90;99.90;;;;;;5087854;28;20044;-69
2022/07/08 04:12:24;;;;;;;17.83;3.22;;;13.90;99.90;;;;;;5070177;28;20043;-70
2022/07/08 04:14:53;;;;;;;10.68;2.50;;;13.90;99.90;;;;;;5090474;28;20051;-70
2022/07/08 04:17:18;;;;;;;10.57;2.92;;;13.90;99.90;;;;;;5089443;28;20408;-70
2022/07/08 04:19:44;;;;;;;10.88;2.40;;;13.90;99.90;;;;;;5088138;28;20047;-70
2022/07/08 04:22:09;;;;;;;11.77;2.65;;;14.80;99.90;;;;;;5090754;28;20036;-71
2022/07/08 04:24:36;;;;;;;16.50;2.50;;;13.90;99.90;;;;;;5089175;28;20040;-71
2022/07/08 04:27:01;;;;;;;9.02;2.22;;;14.70;99.90;;;;;;5088218;28;20442;-71
2022/07/08 04:29:27;;;;;;;11.73;3.17;;;14.00;99.90;;;;;;5089270;28;20043;-71
2022/07/08 04:31:52;;;;;;;10.82;2.63;;;14.30;99.90;;;;;;5089313;28;20419;-71
2022/07/08 04:34:18;;;;;;;11.15;3.13;;;14.40;99.90;;;;;;5086335;28;20052;-71
2022/07/08 04:36:44;;;;;;;11.68;2.72;;;14.20;99.90;;;;;;5078240;28;20032;-71
2022/07/08 04:39:09;;;;;;;17.17;3.78;;;14.20;99.90;;;;;;5051197;28;20048;-71
2022/07/08 04:41:35;;;;;;;15.82;3.10;;;14.30;99.90;;;;;;5068000;28;20041;-71
2022/07/08 04:44:00;;;;;;;11.63;2.95;;;14.30;99.90;;;;;;5069563;28;20044;-71
2022/07/08 04:46:26;;;;;;;11.10;2.50;;;14.40;99.90;;;;;;5079502;28;20413;-71
2022/07/08 04:48:52;;;;;;;12.73;2.78;;;14.50;99.90;;;;;;5089408;28;20138;-71
2022/07/08 04:51:18;;;;;;;18.50;3.13;;;14.50;99.90;;;;;;5088924;28;20056;-71
2022/07/08 04:53:44;;;;;;;9.27;2.47;;;14.60;99.90;;;;;;5069619;28;20048;-71
2022/07/08 04:56:10;;;;;;;17.98;2.80;;;14.60;99.90;;;;;;5088679;28;20050;-71
2022/07/08 04:58:35;;;;;;;17.50;2.80;;;14.60;99.90;;;;;;5089351;28;20071;-71
2022/07/08 05:01:02;;;;;;;12.70;2.47;;;14.70;99.90;;;;;;5081138;28;20060;-71
2022/07/08 05:03:27;;;;;;;11.35;2.40;;;15.60;99.90;;;;;;5075696;28;20036;-71
2022/07/08 05:05:54;;;;;;;10.95;2.78;;;14.70;99.90;;;;;;5088708;28;20122;-70
2022/07/08 05:08:20;;;;;;;14.52;2.90;;;14.80;99.90;;;;;;5069059;28;20099;-70
2022/07/08 05:10:46;;;;;;;13.30;3.03;;;14.80;99.90;;;;;;5075922;28;20067;-70
2022/07/08 05:13:12;;;;;;;12.50;2.80;;;15.20;99.90;;;;;;5051487;28;20370;-69
2022/07/08 05:15:38;;;;;;;7.38;2.50;;;14.90;99.90;;;;;;5067370;28;20495;-69
2022/07/08 05:18:04;;;;;;;13.07;2.80;;;14.90;99.90;;;;;;5067958;28;20037;-71
2022/07/08 05:20:30;;;;;;;8.05;2.47;;;14.90;99.90;;;;;;5068298;28;20171;-71
2022/07/08 05:22:56;;;;;;;12.40;2.60;;;15.00;99.90;;;;;;5066439;28;20477;-71
2022/07/08 05:25:21;;;;;;;11.73;2.85;;;15.60;99.90;;;;;;5055186;28;20044;-71
2022/07/08 05:27:47;;;;;;;13.73;2.90;;;15.30;99.90;;;;;;5087644;28;20134;-71
2022/07/08 05:30:13;;;;;;;13.35;2.88;;;15.00;99.90;;;;;;5087207;28;20040;-69
2022/07/08 05:32:39;;;;;;;13.13;3.10;;;15.30;99.90;;;;;;5086849;28;20043;-71
2022/07/08 05:35:05;;;;;;;12.73;2.95;;;15.00;99.90;;;;;;5071516;28;20440;-70
2022/07/08 05:37:31;;;;;;;9.77;3.50;;;15.10;99.90;;;;;;5081947;28;20361;-71
2022/07/08 05:39:57;;;;;;;14.38;3.08;;;15.40;99.90;;;;;;5085644;28;20036;-71
2022/07/08 05:42:24;;;;;;;12.48;2.75;;;15.10;99.90;;;;;;5084848;28;20050;-71
2022/07/08 05:44:49;;;;;;;11.18;2.72;;;15.30;99.90;;;;;;5053268;28;20139;-71
2022/07/08 05:47:15;;;;;;;9.02;2.55;;;15.30;99.90;;;;;;5067797;28;20580;-71
2022/07/08 05:49:43;;;;;;;12.85;2.90;;;15.40;99.90;;;;;;5065261;28;20052;-71
2022/07/08 05:52:09;;;;;;;15.57;2.80;;;15.50;99.90;;;;;;5046745;28;20114;-71
2022/07/08 05:54:36;;;;;;;16.02;3.00;;;15.50;99.90;;;;;;5062146;28;20393;-70
2022/07/08 05:57:01;;;;;;;17.98;3.38;;;16.60;99.90;;;;;;5067371;28;20164;-70
2022/07/08 05:59:27;;;;;;;13.23;3.45;;;15.70;99.90;;;;;;5050934;28;20045;-70
2022/07/08 06:01:54;;;;;;;9.57;2.55;;;16.50;99.90;;;;;;5051015;28;20032;-70
2022/07/08 06:04:19;;;;;;;12.50;2.65;;;15.80;99.90;;;;;;5076678;28;20094;-70
2022/07/08 06:06:45;;;;;;;13.25;2.65;;;15.90;99.90;;;;;;5088618;28;20036;-70
2022/07/08 06:09:11;;;;;;;13.23;2.70;;;16.00;99.90;;;;;;5086892;28;20135;-70
2022/07/08 06:11:37;;;;;;;13.40;2.83;;;16.20;99.90;;;;;;5064240;28;20453;-70
2022/07/08 06:14:03;;;;;;;10.93;2.47;;;16.20;99.90;;;;;;5038561;28;20044;-70
2022/07/08 06:16:32;;;;;;;12.82;2.85;;;16.60;99.90;;;;;;5088699;28;20040;-70
2022/07/08 06:18:58;;;;;;;14.75;2.80;;;16.30;99.90;;;;;;5069166;28;20046;-70
2022/07/08 06:21:23;;;;;;;13.05;3.03;;;16.30;99.90;;;;;;5066998;28;20112;-70
2022/07/08 06:23:49;;;;;;;13.82;2.90;;;16.30;99.90;;;;;;5084896;28;20456;-70
2022/07/08 06:26:14;;;;;;;13.68;2.90;;;16.30;99.90;;;;;;5068879;28;20032;-70
2022/07/08 06:28:40;;;;;;;13.75;2.65;;;16.50;99.90;;;;;;5067369;28;20098;-70
2022/07/08 06:31:06;;;;;;;12.48;2.88;;;16.40;99.90;;;;;;5066543;28;20465;-70
2022/07/08 06:33:32;;;;;;;10.13;2.53;;;16.60;99.90;;;;;;5066484;28;20057;-70
2022/07/08 06:35:58;;;;;;;9.32;2.60;;;16.50;99.90;;;;;;5048964;28;20098;-70
2022/07/08 06:38:23;;;;;;;10.40;2.60;;;17.00;99.90;;;;;;5069665;28;20048;-70
2022/07/08 06:40:49;;;;;;;12.18;2.53;;;16.70;99.90;;;;;;5049879;28;20037;-70
2022/07/08 06:43:14;;;;;;;11.02;2.95;;;16.80;99.90;;;;;;5046413;28;20122;-70
2022/07/08 06:45:40;;;;;;;11.65;2.72;;;17.50;99.90;;;;;;5040475;28;20066;-70
2022/07/08 06:48:06;;;;;;;9.85;2.67;;;16.90;99.90;;;;;;5046046;28;20076;-71
2022/07/08 06:50:34;;;;;;;11.20;2.85;;;17.00;99.90;;;;;;5047606;28;20114;-71
2022/07/08 06:53:00;;;;;;;11.57;2.85;;;17.40;99.90;;;;;;5049283;28;20041;-71
2022/07/08 06:55:26;;;;;;;11.35;2.83;;;17.10;99.90;;;;;;5050547;28;20455;-70
2022/07/08 06:57:51;;;;;;;14.40;2.75;;;17.10;99.90;;;;;;5053555;28;20049;-71
2022/07/08 07:00:17;;;;;;;12.63;2.70;;;17.20;99.90;;;;;;5043443;28;20044;-69
2022/07/08 07:02:42;;;;;;;16.02;3.58;;;17.30;99.90;;;;;;5072017;28;20115;-70
2022/07/08 07:05:09;;;;;;;12.00;2.83;;;17.30;99.90;;;;;;5073334;28;20116;-69
2022/07/08 07:07:35;;;;;;;14.30;2.80;;;17.40;99.90;;;;;;5069250;28;20048;-70
2022/07/08 07:10:01;;;;;;;9.63;2.30;;;17.40;99.90;;;;;;5070240;28;20481;-70
2022/07/08 07:12:27;;;;;;;10.23;2.38;;;17.40;99.90;;;;;;5058139;28;20041;-70
2022/07/08 07:14:53;;;;;;;9.63;2.13;;;17.50;99.90;;;;;;5050591;28;20055;-69
2022/07/08 07:17:20;;;;;;;9.80;2.72;;;17.50;99.90;;;;;;5032781;28;20060;-69
2022/07/08 07:19:47;;;;;;;10.15;2.20;;;17.60;99.90;;;;;;5051060;28;20037;-70
2022/07/08 07:22:13;;;;;;;12.40;2.80;;;18.00;99.90;;;;;;5049143;28;20134;-70
2022/07/08 07:24:39;;;;;;;11.75;2.35;;;18.10;99.90;;;;;;5049784;28;20049;-69
2022/07/08 07:27:05;;;;;;;9.13;2.30;;;17.80;99.90;;;;;;5031910;28;20041;-69
2022/07/08 07:29:30;;;;;;;11.52;2.60;;;17.80;99.90;;;;;;5060770;28;20421;-70
2022/07/08 07:31:56;;;;;;;8.57;2.10;;;17.90;99.90;;;;;;5069962;28;20119;-71
2022/07/08 07:34:22;;;;;;;8.88;2.38;;;17.90;99.90;;;;;;5071482;28;20053;-70
2022/07/08 07:36:47;;;;;;;8.98;2.58;;;17.90;99.90;;;;;;5069398;28;20121;-69
2022/07/08 07:39:13;;;;;;;9.63;2.45;;;18.00;99.90;;;;;;5066290;28;20063;-69
2022/07/08 07:41:39;;;;;;;9.70;2.30;;;18.00;99.90;;;;;;5048956;28;20067;-69
2022/07/08 07:44:05;;;;;;;9.13;2.30;;;18.00;99.90;;;;;;5049709;28;20474;-69
2022/07/08 07:46:31;;;;;;;8.93;2.38;;;18.10;99.90;;;;;;5052537;28;20040;-69
2022/07/08 07:48:57;;;;;;;11.57;2.63;;;18.10;99.90;;;;;;5055249;28;20094;-69
2022/07/08 07:51:23;;;;;;;15.85;2.67;;;18.10;99.90;;;;;;5057726;28;20056;-69
2022/07/08 07:53:49;;;;;;;11.85;2.38;;;18.10;99.90;;;;;;5072872;28;20145;-69
2022/07/08 07:56:14;;;;;;;10.65;2.85;;;18.20;99.90;;;;;;5050204;28;20530;-69
2022/07/08 07:58:41;;;;;;;8.93;2.35;;;18.20;99.90;;;;;;5069495;28;20048;-69
2022/07/08 08:01:06;;;;;;;9.10;2.45;;;18.40;99.90;;;;;;5050423;28;20059;-69
2022/07/08 08:03:32;;;;;;;6.53;2.15;;;18.50;99.90;;;;;;5075746;28;20089;-69
2022/07/08 08:05:59;;;;;;;9.13;3.05;;;18.30;99.90;;;;;;5071477;28;20120;-70
2022/07/08 08:08:24;;;;;;;9.27;2.60;;;18.40;99.90;;;;;;5067182;28;20124;-70
2022/07/08 08:10:53;;;;;;;11.98;2.35;;;18.50;99.90;;;;;;5067630;28;20111;-71
2022/07/08 08:13:19;;;;;;;11.00;2.20;;;18.50;99.90;;;;;;5048789;28;20094;-71
2022/07/08 08:15:45;;;;;;;9.00;2.40;;;18.50;99.90;;;;;;5052566;28;20056;-70
2022/07/08 08:18:11;;;;;;;8.63;2.05;;;18.80;99.90;;;;;;5031926;28;20055;-70
2022/07/08 08:20:37;;;;;;;6.45;2.00;;;18.50;99.90;;;;;;5066837;28;20485;-70
2022/07/08 08:23:04;;;;;;;8.43;2.10;;;18.50;99.90;;;;;;5066334;28;20081;-69
2022/07/08 08:25:29;;;;;;;10.00;2.58;;;18.50;99.90;;;;;;5067100;28;20044;-69
2022/07/08 08:27:56;;;;;;;12.43;2.63;;;18.70;99.90;;;;;;5049427;28;20501;-69
2022/07/08 08:30:22;;;;;;;12.25;2.28;;;18.40;99.90;;;;;;5067329;28;20465;-70
2022/07/08 08:32:48;;;;;;;6.88;2.10;;;18.30;99.90;;;;;;5048821;28;20118;-69
2022/07/08 08:35:14;;;;;;;9.60;2.70;;;18.40;99.90;;;;;;5064671;28;20071;-69
2022/07/08 08:37:39;;;;;;;8.93;2.42;;;18.40;99.90;;;;;;5066924;28;20068;-70
2022/07/08 08:40:08;;;;;;;6.20;2.10;;;18.40;99.90;;;;;;5066408;28;20045;-71
2022/07/08 08:42:34;;;;;;;8.35;2.70;;;18.40;99.90;;;;;;5050830;28;20039;-69
2022/07/08 08:45:02;;;;;;;7.63;2.17;;;18.40;99.90;;;;;;5067103;28;20338;-69
2022/07/08 08:47:29;;;;;;;9.05;2.25;;;18.40;99.90;;;;;;5071270;28;20497;-70
2022/07/08 08:49:57;;;;;;;9.93;2.15;;;18.50;99.90;;;;;;5065734;28;20131;-70
2022/07/08 08:52:23;;;;;;;6.72;2.22;;;18.60;99.90;;;;;;5065218;28;20036;-71
2022/07/08 08:54:51;;;;;;;8.77;2.42;;;18.60;99.90;;;;;;5048587;28;20063;-69
2022/07/08 08:57:18;;;;;;;8.93;2.30;;;18.60;99.90;;;;;;5066013;28;20450;-71
2022/07/08 08:59:45;;;;;;;8.57;2.30;;;18.70;99.90;;;;;;5067270;28;20559;-69
2022/07/08 09:02:12;;;;;;;8.25;2.58;;;18.70;99.90;;;;;;5068619;28;20047;-69
2022/07/08 09:04:38;;;;;;;7.82;2.28;;;18.70;99.90;;;;;;5059280;28;20049;-69
2022/07/08 09:07:04;;;;;;;9.18;2.42;;;18.80;99.90;;;;;;5046723;28;20040;-69
2022/07/08 09:09:30;;;;;;;7.03;2.53;;;18.90;99.90;;;;;;5067329;28;20035;-68
2022/07/08 09:11:55;;;;;;;8.10;2.65;;;19.00;99.90;;;;;;5067008;28;20525;-68
2022/07/08 09:14:24;;;;;;;6.10;2.25;;;19.10;99.90;;;;;;5049165;28;20060;-67
2022/07/08 09:17:09;;;;;;;10.90;2.58;;;19.00;99.90;;;;;;5067731;28;20036;-68
2022/07/08 09:19:36;;;;;;;11.02;2.60;;;19.10;99.90;;;;;;5069425;28;20044;-68
2022/07/08 09:22:02;;;;;;;8.23;2.38;;;19.10;99.90;;;;;;5067705;28;20142;-67
2022/07/08 09:24:28;;;;;;;9.38;2.40;;;19.10;99.90;;;;;;5052102;28;20115;-67
2022/07/08 09:26:55;;;;;;;8.00;2.35;;;19.20;99.90;;;;;;5037466;28;20132;-67
2022/07/08 09:29:21;;;;;;;11.75;2.50;;;19.20;99.90;;;;;;5068542;28;20488;-68
2022/07/08 09:31:47;;;;;;;5.68;1.92;;;19.40;99.90;;;;;;5067851;28;20048;-68
2022/07/08 09:34:16;;;;;;;8.45;2.45;;;19.40;99.90;;;;;;5067981;28;20496;-68
2022/07/08 09:36:48;;;;;;;7.55;2.22;;;19.40;99.90;;;;;;5066305;28;20112;-69
2022/07/08 09:39:32;;;;;;;9.50;2.22;;;19.50;99.90;;;;;;5066815;28;20629;-67
2022/07/08 09:41:57;;;;;;;6.38;1.90;;;19.50;99.90;;;;;;5066105;28;20036;-67
2022/07/08 09:44:23;;;;;;;7.95;2.30;;;19.60;99.90;;;;;;5068449;28;20127;-68
2022/07/08 09:46:50;;;;;;;8.18;2.25;;;19.60;99.90;;;;;;5066562;28;20493;-69
2022/07/08 09:49:32;;;;;;;9.27;2.50;;;19.70;99.90;;;;;;5048013;28;20139;-68
2022/07/08 09:51:58;;;;;;;6.95;2.10;;;19.80;99.90;;;;;;5049692;28;20052;-68
2022/07/08 09:54:26;;;;;;;6.38;2.05;;;19.90;99.90;;;;;;5066427;28;20097;-69
2022/07/08 09:56:59;;;;;;;5.20;1.98;;;20.00;99.90;;;;;;5066074;28;20093;-69
2022/07/08 09:59:25;;;;;;;9.15;2.08;;;20.00;99.90;;;;;;5066917;28;20047;-69
2022/07/08 10:01:54;;;;;;;5.05;1.90;;;20.00;99.90;;;;;;5048323;28;20049;-69
2022/07/08 10:04:23;;;;;;;5.85;1.92;;;20.10;99.90;;;;;;5067627;28;20124;-69
2022/07/08 10:06:53;;;;;;;6.15;2.05;;;20.00;99.90;;;;;;5066575;28;20170;-68
2022/07/08 10:09:21;;;;;;;8.27;2.30;;;20.10;99.90;;;;;;5048482;28;20481;-68
2022/07/08 10:11:47;;;;;;;9.27;2.17;;;20.20;99.90;;;;;;5065478;28;20044;-68
2022/07/08 10:14:14;;;;;;;7.75;2.20;;;20.30;99.90;;;;;;5066402;28;20041;-68
2022/07/08 10:16:40;;;;;;;6.90;2.30;;;20.40;99.90;;;;;;5068009;28;20036;-68
2022/07/08 10:19:11;;;;;;;7.00;2.22;;;20.50;99.90;;;;;;5065678;28;20044;-68
2022/07/08 10:21:39;;;;;;;8.77;1.92;;;20.50;99.90;;;;;;5065352;28;20040;-69
2022/07/08 10:24:12;;;;;;;6.90;2.42;;;20.50;99.90;;;;;;5066102;28;20098;-69
2022/07/08 10:26:43;;;;;;;9.88;2.58;;;20.50;99.90;;;;;;5068533;28;20042;-70
2022/07/08 10:29:10;;;;;;;9.73;2.53;;;20.50;99.90;;;;;;5070695;28;20135;-68
2022/07/08 10:31:52;;;;;;;7.85;2.38;;;20.50;99.90;;;;;;5069726;28;20123;-68
2022/07/08 10:34:27;;;;;;;8.50;2.17;;;20.50;99.90;;;;;;5070834;28;20131;-67
2022/07/08 10:36:53;;;;;;;;;;;20.60;99.90;;;;;;5085709;28;20122;-68
2022/07/08 10:39:30;;;;;;;7.35;2.30;;;20.70;99.90;;;;;;5069284;28;19921;-69
2022/07/08 10:42:10;;;;;;;8.70;2.35;;;20.90;99.90;;;;;;5070156;28;20056;-69
2022/07/08 10:44:45;;;;;;;7.88;2.25;;;20.90;99.90;;;;;;5069997;28;20071;-69
2022/07/08 10:47:16;;;;;;;10.57;2.70;;;20.90;99.90;;;;;;5069333;28;20103;-69
2022/07/08 10:49:48;;;;;;;10.40;2.50;;;21.00;99.90;;;;;;5068620;28;20261;-69
2022/07/08 10:52:16;;;;;;;7.80;2.50;;;21.20;99.90;;;;;;5048477;28;20439;-69
2022/07/08 10:54:42;;;;;;;9.18;2.33;;;21.30;99.90;;;;;;5049881;28;20132;-69
2022/07/08 10:57:09;;;;;;;10.00;2.05;;;21.40;99.90;;;;;;5049548;28;20132;-68
2022/07/08 10:59:38;;;;;;;11.82;2.60;;;21.50;99.90;;;;;;5049088;28;20505;-69
2022/07/08 11:02:16;;;;;;;8.43;2.53;;;21.50;99.90;;;;;;5066196;28;20032;-69
2022/07/08 11:04:45;;;;;;;8.07;2.15;;;21.50;99.90;;;;;;5070455;28;20048;-68
2022/07/08 11:07:28;;;;;;;7.07;2.10;;;21.50;99.90;;;;;;5068492;28;20142;-68
2022/07/08 11:10:08;;;;;;;8.52;2.55;;;21.70;99.90;;;;;;5055541;28;20522;-67
2022/07/08 11:12:39;;;;;;;7.07;2.40;;;21.90;99.90;;;;;;5070294;28;20033;-67
2022/07/08 11:15:17;;;;;;;8.27;2.65;;;22.10;99.90;;;;;;5068056;28;20115;-68
2022/07/08 11:17:45;;;;;;;7.13;2.50;;;22.40;99.90;;;;;;5069249;28;20058;-67
2022/07/08 11:20:14;;;;;;;6.05;2.13;;;22.70;99.90;;;;;;5068026;28;20056;-69
2022/07/08 11:22:42;;;;;;;7.35;2.22;;;23.00;99.90;;;;;;5067660;28;20445;-67
2022/07/08 11:25:10;;;;;;;8.60;2.50;;;23.10;99.90;;;;;;5068414;28;20548;-68
2022/07/08 11:27:37;;;;;;;8.25;2.40;;;23.40;99.90;;;;;;5066212;28;20045;-68
2022/07/08 11:30:06;;;;;;;10.68;2.40;;;23.60;99.90;;;;;;5068513;28;20048;-69
2022/07/08 11:32:32;;;;;;;8.38;2.35;;;23.90;99.90;;;;;;5067317;28;20048;-68
2022/07/08 11:34:58;;;;;;;6.57;2.20;;;24.10;99.90;;;;;;5066780;28;20064;-67
2022/07/08 11:37:24;;;;;;;7.70;2.40;;;24.40;99.90;;;;;;5066710;28;20075;-67
2022/07/08 11:39:51;;;;;;;8.07;2.38;;;24.50;99.90;;;;;;5067887;28;20051;-69
2022/07/08 11:42:17;;;;;;;8.52;2.20;;;24.50;99.90;;;;;;5067601;28;20064;-69
2022/07/08 11:44:44;;;;;;;9.70;2.40;;;24.70;99.90;;;;;;5069137;28;20037;-76
2022/07/08 11:47:12;;;;;;;11.68;2.80;;;25.40;99.90;;;;;;5050439;28;20055;-74
2022/07/08 11:49:42;;;;;;;9.85;2.60;;;25.50;99.90;;;;;;5068462;28;20095;-74
2022/07/08 11:52:09;;;;;;;10.00;2.45;;;27.50;99.90;;;;;;5067754;28;20048;-75
2022/07/08 11:54:35;;;;;;;10.88;2.42;;;28.80;99.90;;;;;;5068662;28;20090;-75
2022/07/08 11:57:01;;;;;;;5.00;1.90;;;28.50;99.70;;;;;;5082507;28;20036;-75
2022/07/08 11:59:29;;;;;;;7.43;2.33;;;27.80;99.90;;;;;;5068220;28;20127;-75
2022/07/08 12:01:57;;;;;;;9.55;2.60;;;27.30;99.90;;;;;;5068239;28;20151;-74
2022/07/08 12:04:23;;;;;;;9.63;2.40;;;26.50;99.90;;;;;;5067772;28;20113;-68
2022/07/08 12:06:54;;;;;;;7.05;2.75;;;25.80;99.90;;;;;;5067693;28;20128;-68
2022/07/08 12:09:21;;;;;;;9.18;2.20;;;25.30;99.90;;;;;;5066664;28;20388;-68
2022/07/08 12:11:52;;;;;;;5.53;2.15;;;24.90;99.90;;;;;;5061589;28;20079;-69
2022/07/08 12:14:19;;;;;;;10.68;2.95;;;24.70;99.90;;;;;;5047735;28;20049;-67
2022/07/08 12:16:47;;;;;;;7.00;2.63;;;24.50;99.90;;;;;;5054403;28;20047;-68
2022/07/08 12:19:26;;;;;;;8.70;2.90;;;24.20;99.90;;;;;;5076938;28;20044;-70
2022/07/08 12:21:53;;;;;;;8.52;2.80;;;23.90;99.90;;;;;;5056272;28;20046;-68
2022/07/08 12:24:24;;;;;;;7.78;2.55;;;23.80;99.90;;;;;;5062397;28;20432;-69
2022/07/08 12:26:55;;;;;;;7.90;2.53;;;23.60;99.90;;;;;;5067753;28;20068;-69
2022/07/08 12:29:21;;;;;;;7.68;2.80;;;23.50;99.90;;;;;;5068074;28;20036;-68
2022/07/08 12:31:47;;;;;;;7.00;2.40;;;23.70;99.90;;;;;;5030092;28;1068708;-69
2022/07/08 12:34:21;;;;;;;9.82;2.88;;;23.70;99.90;;;;;;5051158;28;20405;-68
2022/07/08 12:36:47;;;;;;;10.48;2.70;;;23.70;99.90;;;;;;5069714;28;20047;-68
2022/07/08 12:39:21;;;;;;;9.48;2.70;;;23.50;99.90;;;;;;5052096;28;20493;-69
2022/07/08 12:42:05;;;;;;;8.18;2.42;;;23.50;99.90;;;;;;5071164;28;20048;-69
2022/07/08 12:44:40;;;;;;;9.55;3.00;;;23.50;99.90;;;;;;5070830;28;20460;-68